sensor_id;sensor_type;location;lat;lon;timestamp;P1;durP1;ratioP1;P2;durP2;ratioP2
17177;SDS011;8704;52.006;4.374;2023-06-01T00:01:20;20.60;;;14.13;;
17177;SDS011;8704;52.006;4.374;2023-06-01T00:03:48;19.85;;;14.77;;
17177;SDS011;8704;52.006;4.374;2023-06-01T00:06:17;20.45;;;13.80;;
17177;SDS011;8704;52.006;4.374;2023-06-01T00:08:46;19.75;;;13.68;;
17177;SDS011;8704;52.006;4.374;2023-06-01T00:11:14;21.08;;;13.48;;
17177;SDS011;8704;52.006;4.374;2023-06-01T00:13:43;19.88;;;13.18;;
17177;SDS011;8704;52.006;4.374;2023-06-01T00:16:12;19.08;;;13.20;;
17177;SDS011;8704;52.006;4.374;2023-06-01T00:18:40;18.95;;;13.13;;
17177;SDS011;8704;52.006;4.374;2023-06-01T00:21:09;17.60;;;13.18;;
17177;SDS011;8704;52.006;4.374;2023-06-01T00:23:37;20.50;;;13.38;;
17177;SDS011;8704;52.006;4.374;2023-06-01T00:26:08;18.85;;;13.18;;
17177;SDS011;8704;52.006;4.374;2023-06-01T00:28:36;17.80;;;12.93;;
17177;SDS011;8704;52.006;4.374;2023-06-01T00:31:05;20.17;;;12.13;;
17177;SDS011;8704;52.006;4.374;2023-06-01T00:33:33;17.20;;;10.77;;
17177;SDS011;8704;52.006;4.374;2023-06-01T00:36:01;14.63;;;11.40;;
17177;SDS011;8704;52.006;4.374;2023-06-01T00:38:30;16.35;;;10.32;;
17177;SDS011;8704;52.006;4.374;2023-06-01T00:40:58;18.15;;;10.48;;
17177;SDS011;8704;52.006;4.374;2023-06-01T00:43:28;15.13;;;10.45;;
17177;SDS011;8704;52.006;4.374;2023-06-01T00:45:56;14.32;;;9.70;;
17177;SDS011;8704;52.006;4.374;2023-06-01T00:48:25;13.80;;;9.57;;
17177;SDS011;8704;52.006;4.374;2023-06-01T00:50:53;16.02;;;10.50;;
17177;SDS011;8704;52.006;4.374;2023-06-01T00:53:23;15.57;;;9.70;;
17177;SDS011;8704;52.006;4.374;2023-06-01T00:55:52;14.25;;;9.50;;
17177;SDS011;8704;52.006;4.374;2023-06-01T00:58:21;15.82;;;9.43;;
17177;SDS011;8704;52.006;4.374;2023-06-01T01:00:50;14.15;;;9.40;;
17177;SDS011;8704;52.006;4.374;2023-06-01T01:03:20;18.70;;;9.80;;
17177;SDS011;8704;52.006;4.374;2023-06-01T01:05:52;15.05;;;9.10;;
17177;SDS011;8704;52.006;4.374;2023-06-01T01:08:24;16.38;;;9.82;;
17177;SDS011;8704;52.006;4.374;2023-06-01T01:10:59;12.98;;;8.75;;
17177;SDS011;8704;52.006;4.374;2023-06-01T01:13:31;17.45;;;9.48;;
17177;SDS011;8704;52.006;4.374;2023-06-01T01:16:03;12.90;;;9.65;;
17177;SDS011;8704;52.006;4.374;2023-06-01T01:21:02;15.35;;;9.48;;
17177;SDS011;8704;52.006;4.374;2023-06-01T01:23:53;13.27;;;8.93;;
17177;SDS011;8704;52.006;4.374;2023-06-01T01:26:28;13.25;;;8.60;;
17177;SDS011;8704;52.006;4.374;2023-06-01T01:29:00;16.55;;;9.65;;
17177;SDS011;8704;52.006;4.374;2023-06-01T01:31:30;15.95;;;9.77;;
17177;SDS011;8704;52.006;4.374;2023-06-01T01:33:58;18.50;;;9.80;;
17177;SDS011;8704;52.006;4.374;2023-06-01T01:36:27;18.02;;;10.63;;
17177;SDS011;8704;52.006;4.374;2023-06-01T01:38:55;15.98;;;10.25;;
17177;SDS011;8704;52.006;4.374;2023-06-01T01:41:24;14.18;;;9.52;;
17177;SDS011;8704;52.006;4.374;2023-06-01T01:43:52;15.35;;;10.88;;
17177;SDS011;8704;52.006;4.374;2023-06-01T01:46:25;19.13;;;11.35;;
17177;SDS011;8704;52.006;4.374;2023-06-01T01:49:00;16.67;;;11.88;;
17177;SDS011;8704;52.006;4.374;2023-06-01T01:51:32;18.08;;;11.50;;
17177;SDS011;8704;52.006;4.374;2023-06-01T01:54:04;20.95;;;11.77;;
17177;SDS011;8704;52.006;4.374;2023-06-01T01:56:34;14.93;;;11.45;;
17177;SDS011;8704;52.006;4.374;2023-06-01T01:59:03;16.98;;;11.80;;
17177;SDS011;8704;52.006;4.374;2023-06-01T02:01:33;16.80;;;11.50;;
17177;SDS011;8704;52.006;4.374;2023-06-01T02:04:02;15.68;;;11.40;;
17177;SDS011;8704;52.006;4.374;2023-06-01T02:06:33;17.70;;;12.45;;
17177;SDS011;8704;52.006;4.374;2023-06-01T02:09:02;17.38;;;11.60;;
17177;SDS011;8704;52.006;4.374;2023-06-01T02:11:33;15.18;;;11.77;;
17177;SDS011;8704;52.006;4.374;2023-06-01T02:14:01;16.58;;;11.55;;
17177;SDS011;8704;52.006;4.374;2023-06-01T02:16:29;18.15;;;11.23;;
17177;SDS011;8704;52.006;4.374;2023-06-01T02:18:59;16.35;;;11.52;;
17177;SDS011;8704;52.006;4.374;2023-06-01T02:21:28;18.38;;;11.85;;
17177;SDS011;8704;52.006;4.374;2023-06-01T02:23:57;16.30;;;11.23;;
17177;SDS011;8704;52.006;4.374;2023-06-01T02:26:30;17.17;;;12.00;;
17177;SDS011;8704;52.006;4.374;2023-06-01T02:28:59;17.52;;;11.60;;
17177;SDS011;8704;52.006;4.374;2023-06-01T02:31:28;15.25;;;11.27;;
17177;SDS011;8704;52.006;4.374;2023-06-01T02:33:57;17.42;;;11.13;;
17177;SDS011;8704;52.006;4.374;2023-06-01T02:36:26;16.73;;;11.20;;
17177;SDS011;8704;52.006;4.374;2023-06-01T02:38:55;13.13;;;10.48;;
17177;SDS011;8704;52.006;4.374;2023-06-01T02:41:23;14.27;;;10.65;;
17177;SDS011;8704;52.006;4.374;2023-06-01T02:43:52;17.00;;;10.60;;
17177;SDS011;8704;52.006;4.374;2023-06-01T02:46:20;18.38;;;10.30;;
17177;SDS011;8704;52.006;4.374;2023-06-01T02:48:49;15.73;;;10.50;;
17177;SDS011;8704;52.006;4.374;2023-06-01T02:51:19;15.63;;;9.75;;
17177;SDS011;8704;52.006;4.374;2023-06-01T02:53:48;15.23;;;9.88;;
17177;SDS011;8704;52.006;4.374;2023-06-01T02:56:17;26.42;;;10.80;;
17177;SDS011;8704;52.006;4.374;2023-06-01T02:58:45;14.95;;;9.02;;
17177;SDS011;8704;52.006;4.374;2023-06-01T03:01:13;15.77;;;9.57;;
17177;SDS011;8704;52.006;4.374;2023-06-01T03:03:42;14.20;;;10.25;;
17177;SDS011;8704;52.006;4.374;2023-06-01T03:06:11;18.23;;;10.93;;
17177;SDS011;8704;52.006;4.374;2023-06-01T03:08:39;16.15;;;11.18;;
17177;SDS011;8704;52.006;4.374;2023-06-01T03:11:09;18.17;;;10.32;;
17177;SDS011;8704;52.006;4.374;2023-06-01T03:13:37;13.38;;;10.27;;
17177;SDS011;8704;52.006;4.374;2023-06-01T03:16:05;15.52;;;11.45;;
17177;SDS011;8704;52.006;4.374;2023-06-01T03:18:34;16.95;;;11.23;;
17177;SDS011;8704;52.006;4.374;2023-06-01T03:21:04;19.75;;;11.93;;
17177;SDS011;8704;52.006;4.374;2023-06-01T03:23:32;19.25;;;11.05;;
17177;SDS011;8704;52.006;4.374;2023-06-01T03:26:02;19.40;;;11.65;;
17177;SDS011;8704;52.006;4.374;2023-06-01T03:28:32;20.67;;;11.30;;
17177;SDS011;8704;52.006;4.374;2023-06-01T03:31:00;19.02;;;10.35;;
17177;SDS011;8704;52.006;4.374;2023-06-01T03:33:29;19.90;;;11.63;;
17177;SDS011;8704;52.006;4.374;2023-06-01T03:35:57;17.13;;;12.38;;
17177;SDS011;8704;52.006;4.374;2023-06-01T03:38:25;16.48;;;11.93;;
17177;SDS011;8704;52.006;4.374;2023-06-01T03:40:54;18.27;;;11.75;;
17177;SDS011;8704;52.006;4.374;2023-06-01T03:43:22;16.58;;;12.13;;
17177;SDS011;8704;52.006;4.374;2023-06-01T03:45:52;19.00;;;12.13;;
17177;SDS011;8704;52.006;4.374;2023-06-01T03:48:20;19.73;;;11.52;;
17177;SDS011;8704;52.006;4.374;2023-06-01T03:50:49;17.20;;;12.55;;
17177;SDS011;8704;52.006;4.374;2023-06-01T03:53:17;18.42;;;12.68;;
17177;SDS011;8704;52.006;4.374;2023-06-01T03:55:46;17.02;;;12.50;;
17177;SDS011;8704;52.006;4.374;2023-06-01T03:58:18;20.85;;;12.40;;
17177;SDS011;8704;52.006;4.374;2023-06-01T04:00:46;19.85;;;12.18;;
17177;SDS011;8704;52.006;4.374;2023-06-01T04:03:16;17.27;;;12.10;;
17177;SDS011;8704;52.006;4.374;2023-06-01T04:08:17;18.15;;;11.68;;
17177;SDS011;8704;52.006;4.374;2023-06-01T04:10:47;20.38;;;11.65;;
17177;SDS011;8704;52.006;4.374;2023-06-01T04:13:16;18.20;;;11.30;;
17177;SDS011;8704;52.006;4.374;2023-06-01T04:15:44;17.45;;;11.23;;
17177;SDS011;8704;52.006;4.374;2023-06-01T04:18:13;19.90;;;11.80;;
17177;SDS011;8704;52.006;4.374;2023-06-01T04:20:43;17.13;;;10.85;;
17177;SDS011;8704;52.006;4.374;2023-06-01T04:23:11;16.90;;;10.65;;
17177;SDS011;8704;52.006;4.374;2023-06-01T04:25:39;19.20;;;11.43;;
17177;SDS011;8704;52.006;4.374;2023-06-01T04:28:10;15.43;;;10.52;;
17177;SDS011;8704;52.006;4.374;2023-06-01T04:30:39;16.73;;;11.13;;
17177;SDS011;8704;52.006;4.374;2023-06-01T04:33:10;15.05;;;10.60;;
17177;SDS011;8704;52.006;4.374;2023-06-01T04:35:38;16.42;;;11.00;;
17177;SDS011;8704;52.006;4.374;2023-06-01T04:38:11;15.57;;;11.48;;
17177;SDS011;8704;52.006;4.374;2023-06-01T04:40:40;19.17;;;10.88;;
17177;SDS011;8704;52.006;4.374;2023-06-01T04:43:08;19.13;;;10.77;;
17177;SDS011;8704;52.006;4.374;2023-06-01T04:45:37;20.10;;;10.80;;
17177;SDS011;8704;52.006;4.374;2023-06-01T04:48:07;16.70;;;9.88;;
17177;SDS011;8704;52.006;4.374;2023-06-01T04:50:35;17.33;;;9.43;;
17177;SDS011;8704;52.006;4.374;2023-06-01T04:53:04;15.45;;;9.90;;
17177;SDS011;8704;52.006;4.374;2023-06-01T04:55:34;17.80;;;9.85;;
17177;SDS011;8704;52.006;4.374;2023-06-01T04:58:02;14.82;;;9.70;;
17177;SDS011;8704;52.006;4.374;2023-06-01T05:00:31;17.83;;;10.63;;
17177;SDS011;8704;52.006;4.374;2023-06-01T05:03:00;15.60;;;10.07;;
17177;SDS011;8704;52.006;4.374;2023-06-01T05:05:29;14.40;;;10.00;;
17177;SDS011;8704;52.006;4.374;2023-06-01T05:07:57;17.35;;;9.48;;
17177;SDS011;8704;52.006;4.374;2023-06-01T05:10:25;18.67;;;10.48;;
17177;SDS011;8704;52.006;4.374;2023-06-01T05:12:55;16.88;;;10.57;;
17177;SDS011;8704;52.006;4.374;2023-06-01T05:15:23;19.30;;;10.95;;
17177;SDS011;8704;52.006;4.374;2023-06-01T05:17:54;18.50;;;11.15;;
17177;SDS011;8704;52.006;4.374;2023-06-01T05:20:22;16.25;;;9.70;;
17177;SDS011;8704;52.006;4.374;2023-06-01T05:22:51;17.25;;;10.68;;
17177;SDS011;8704;52.006;4.374;2023-06-01T05:25:19;18.83;;;11.38;;
17177;SDS011;8704;52.006;4.374;2023-06-01T05:27:47;19.63;;;11.30;;
17177;SDS011;8704;52.006;4.374;2023-06-01T05:30:17;16.05;;;11.50;;
17177;SDS011;8704;52.006;4.374;2023-06-01T05:32:45;15.40;;;11.15;;
17177;SDS011;8704;52.006;4.374;2023-06-01T05:35:14;17.52;;;10.77;;
17177;SDS011;8704;52.006;4.374;2023-06-01T05:37:42;16.08;;;10.25;;
17177;SDS011;8704;52.006;4.374;2023-06-01T05:40:12;15.40;;;10.40;;
17177;SDS011;8704;52.006;4.374;2023-06-01T05:42:40;14.40;;;10.02;;
17177;SDS011;8704;52.006;4.374;2023-06-01T05:45:09;17.20;;;10.63;;
17177;SDS011;8704;52.006;4.374;2023-06-01T05:47:39;20.02;;;10.23;;
17177;SDS011;8704;52.006;4.374;2023-06-01T05:50:07;14.02;;;9.63;;
17177;SDS011;8704;52.006;4.374;2023-06-01T05:52:36;15.60;;;10.35;;
17177;SDS011;8704;52.006;4.374;2023-06-01T05:55:05;16.10;;;9.68;;
17177;SDS011;8704;52.006;4.374;2023-06-01T05:57:33;17.58;;;10.52;;
17177;SDS011;8704;52.006;4.374;2023-06-01T06:00:02;16.33;;;9.80;;
17177;SDS011;8704;52.006;4.374;2023-06-01T06:05:04;18.92;;;11.18;;
17177;SDS011;8704;52.006;4.374;2023-06-01T06:07:32;17.77;;;12.00;;
17177;SDS011;8704;52.006;4.374;2023-06-01T06:10:01;16.83;;;11.20;;
17177;SDS011;8704;52.006;4.374;2023-06-01T06:12:30;21.30;;;12.63;;
17177;SDS011;8704;52.006;4.374;2023-06-01T06:14:58;18.67;;;12.48;;
17177;SDS011;8704;52.006;4.374;2023-06-01T06:17:26;21.48;;;12.57;;
17177;SDS011;8704;52.006;4.374;2023-06-01T06:19:55;23.17;;;13.25;;
17177;SDS011;8704;52.006;4.374;2023-06-01T06:22:25;19.27;;;13.10;;
17177;SDS011;8704;52.006;4.374;2023-06-01T06:24:53;18.00;;;12.48;;
17177;SDS011;8704;52.006;4.374;2023-06-01T06:27:21;20.95;;;13.13;;
17177;SDS011;8704;52.006;4.374;2023-06-01T06:29:50;18.92;;;13.05;;
17177;SDS011;8704;52.006;4.374;2023-06-01T06:32:18;17.50;;;13.00;;
17177;SDS011;8704;52.006;4.374;2023-06-01T06:34:47;16.80;;;12.35;;
17177;SDS011;8704;52.006;4.374;2023-06-01T06:37:15;18.77;;;13.30;;
17177;SDS011;8704;52.006;4.374;2023-06-01T06:39:45;19.58;;;12.73;;
17177;SDS011;8704;52.006;4.374;2023-06-01T06:42:13;18.15;;;12.35;;
17177;SDS011;8704;52.006;4.374;2023-06-01T06:44:42;16.92;;;12.10;;
17177;SDS011;8704;52.006;4.374;2023-06-01T06:47:10;15.23;;;11.10;;
17177;SDS011;8704;52.006;4.374;2023-06-01T06:49:41;17.42;;;10.68;;
17177;SDS011;8704;52.006;4.374;2023-06-01T06:52:09;18.33;;;11.35;;
17177;SDS011;8704;52.006;4.374;2023-06-01T06:54:38;18.58;;;11.05;;
17177;SDS011;8704;52.006;4.374;2023-06-01T06:57:08;17.27;;;11.05;;
17177;SDS011;8704;52.006;4.374;2023-06-01T06:59:38;19.48;;;10.80;;
17177;SDS011;8704;52.006;4.374;2023-06-01T07:02:06;16.58;;;10.35;;
17177;SDS011;8704;52.006;4.374;2023-06-01T07:04:35;14.35;;;10.52;;
17177;SDS011;8704;52.006;4.374;2023-06-01T07:07:03;14.32;;;10.65;;
17177;SDS011;8704;52.006;4.374;2023-06-01T07:09:32;15.18;;;10.52;;
17177;SDS011;8704;52.006;4.374;2023-06-01T07:12:00;16.88;;;10.45;;
17177;SDS011;8704;52.006;4.374;2023-06-01T07:14:30;18.05;;;10.98;;
17177;SDS011;8704;52.006;4.374;2023-06-01T07:16:58;16.48;;;9.95;;
17177;SDS011;8704;52.006;4.374;2023-06-01T07:19:26;14.75;;;10.05;;
17177;SDS011;8704;52.006;4.374;2023-06-01T07:21:59;17.55;;;10.45;;
17177;SDS011;8704;52.006;4.374;2023-06-01T07:24:27;14.18;;;10.52;;
17177;SDS011;8704;52.006;4.374;2023-06-01T07:26:56;15.13;;;9.93;;
17177;SDS011;8704;52.006;4.374;2023-06-01T07:29:24;15.15;;;10.52;;
17177;SDS011;8704;52.006;4.374;2023-06-01T07:31:55;15.00;;;9.25;;
17177;SDS011;8704;52.006;4.374;2023-06-01T07:34:23;17.20;;;10.18;;
17177;SDS011;8704;52.006;4.374;2023-06-01T07:36:52;14.07;;;9.43;;
17177;SDS011;8704;52.006;4.374;2023-06-01T07:39:43;12.95;;;9.20;;
17177;SDS011;8704;52.006;4.374;2023-06-01T07:42:11;15.32;;;9.45;;
17177;SDS011;8704;52.006;4.374;2023-06-01T07:44:39;15.55;;;8.48;;
17177;SDS011;8704;52.006;4.374;2023-06-01T07:47:09;15.90;;;8.68;;
17177;SDS011;8704;52.006;4.374;2023-06-01T07:49:37;18.02;;;8.77;;
17177;SDS011;8704;52.006;4.374;2023-06-01T07:52:06;17.27;;;8.80;;
17177;SDS011;8704;52.006;4.374;2023-06-01T07:54:35;12.00;;;8.07;;
17177;SDS011;8704;52.006;4.374;2023-06-01T07:57:03;12.15;;;8.48;;
17177;SDS011;8704;52.006;4.374;2023-06-01T07:59:32;16.08;;;9.32;;
17177;SDS011;8704;52.006;4.374;2023-06-01T08:02:00;15.07;;;8.77;;
17177;SDS011;8704;52.006;4.374;2023-06-01T08:04:30;14.75;;;8.35;;
17177;SDS011;8704;52.006;4.374;2023-06-01T08:07:00;12.32;;;7.85;;
17177;SDS011;8704;52.006;4.374;2023-06-01T08:09:30;11.90;;;8.32;;
17177;SDS011;8704;52.006;4.374;2023-06-01T08:11:58;12.63;;;7.85;;
17177;SDS011;8704;52.006;4.374;2023-06-01T08:14:27;13.07;;;8.00;;
17177;SDS011;8704;52.006;4.374;2023-06-01T08:16:58;12.75;;;8.05;;
17177;SDS011;8704;52.006;4.374;2023-06-01T08:19:27;12.13;;;8.13;;
17177;SDS011;8704;52.006;4.374;2023-06-01T08:21:57;10.75;;;7.97;;
17177;SDS011;8704;52.006;4.374;2023-06-01T08:24:26;11.90;;;7.78;;
17177;SDS011;8704;52.006;4.374;2023-06-01T08:26:58;13.88;;;8.50;;
17177;SDS011;8704;52.006;4.374;2023-06-01T08:29:26;12.00;;;8.57;;
17177;SDS011;8704;52.006;4.374;2023-06-01T08:32:08;10.93;;;8.02;;
17177;SDS011;8704;52.006;4.374;2023-06-01T08:34:36;11.68;;;7.53;;
17177;SDS011;8704;52.006;4.374;2023-06-01T08:37:06;12.93;;;8.18;;
17177;SDS011;8704;52.006;4.374;2023-06-01T08:39:35;14.30;;;8.35;;
17177;SDS011;8704;52.006;4.374;2023-06-01T08:42:05;11.65;;;7.55;;
17177;SDS011;8704;52.006;4.374;2023-06-01T08:44:38;12.30;;;7.32;;
17177;SDS011;8704;52.006;4.374;2023-06-01T08:47:07;12.35;;;7.85;;
17177;SDS011;8704;52.006;4.374;2023-06-01T08:49:36;12.00;;;8.00;;
17177;SDS011;8704;52.006;4.374;2023-06-01T08:52:08;11.07;;;6.90;;
17177;SDS011;8704;52.006;4.374;2023-06-01T08:57:06;12.55;;;7.00;;
17177;SDS011;8704;52.006;4.374;2023-06-01T08:59:35;11.25;;;7.65;;
17177;SDS011;8704;52.006;4.374;2023-06-01T09:02:05;12.38;;;7.90;;
17177;SDS011;8704;52.006;4.374;2023-06-01T09:04:34;10.55;;;7.60;;
17177;SDS011;8704;52.006;4.374;2023-06-01T09:07:04;11.80;;;7.50;;
17177;SDS011;8704;52.006;4.374;2023-06-01T09:09:34;14.18;;;6.97;;
17177;SDS011;8704;52.006;4.374;2023-06-01T09:12:15;13.45;;;7.60;;
17177;SDS011;8704;52.006;4.374;2023-06-01T09:14:44;12.25;;;7.63;;
17177;SDS011;8704;52.006;4.374;2023-06-01T09:17:12;11.52;;;7.28;;
17177;SDS011;8704;52.006;4.374;2023-06-01T09:19:42;9.77;;;7.47;;
17177;SDS011;8704;52.006;4.374;2023-06-01T09:22:11;13.82;;;6.80;;
17177;SDS011;8704;52.006;4.374;2023-06-01T09:24:41;11.82;;;7.68;;
17177;SDS011;8704;52.006;4.374;2023-06-01T09:27:22;15.07;;;7.43;;
17177;SDS011;8704;52.006;4.374;2023-06-01T09:29:55;12.23;;;7.10;;
17177;SDS011;8704;52.006;4.374;2023-06-01T09:32:25;11.05;;;6.85;;
17177;SDS011;8704;52.006;4.374;2023-06-01T09:34:53;10.50;;;6.82;;
17177;SDS011;8704;52.006;4.374;2023-06-01T09:37:22;10.65;;;7.10;;
17177;SDS011;8704;52.006;4.374;2023-06-01T09:39:51;12.65;;;7.35;;
17177;SDS011;8704;52.006;4.374;2023-06-01T09:42:24;12.15;;;7.38;;
17177;SDS011;8704;52.006;4.374;2023-06-01T09:45:13;11.23;;;6.72;;
17177;SDS011;8704;52.006;4.374;2023-06-01T09:47:42;11.50;;;7.07;;
17177;SDS011;8704;52.006;4.374;2023-06-01T09:50:11;11.18;;;6.53;;
17177;SDS011;8704;52.006;4.374;2023-06-01T09:52:39;9.88;;;7.03;;
17177;SDS011;8704;52.006;4.374;2023-06-01T09:55:10;12.07;;;7.13;;
17177;SDS011;8704;52.006;4.374;2023-06-01T09:57:38;11.52;;;6.57;;
17177;SDS011;8704;52.006;4.374;2023-06-01T10:00:07;11.43;;;6.57;;
17177;SDS011;8704;52.006;4.374;2023-06-01T10:02:36;11.00;;;6.40;;
17177;SDS011;8704;52.006;4.374;2023-06-01T10:05:07;12.00;;;6.70;;
17177;SDS011;8704;52.006;4.374;2023-06-01T10:07:37;9.38;;;6.90;;
17177;SDS011;8704;52.006;4.374;2023-06-01T10:10:06;10.98;;;6.43;;
17177;SDS011;8704;52.006;4.374;2023-06-01T10:12:36;10.70;;;6.22;;
17177;SDS011;8704;52.006;4.374;2023-06-01T10:15:05;8.65;;;6.03;;
17177;SDS011;8704;52.006;4.374;2023-06-01T10:17:51;11.75;;;5.75;;
17177;SDS011;8704;52.006;4.374;2023-06-01T10:20:20;10.32;;;6.28;;
17177;SDS011;8704;52.006;4.374;2023-06-01T10:22:48;13.55;;;5.53;;
17177;SDS011;8704;52.006;4.374;2023-06-01T10:25:16;9.90;;;6.10;;
17177;SDS011;8704;52.006;4.374;2023-06-01T10:27:51;10.20;;;5.70;;
17177;SDS011;8704;52.006;4.374;2023-06-01T10:30:20;10.10;;;6.85;;
17177;SDS011;8704;52.006;4.374;2023-06-01T10:32:48;10.27;;;5.00;;
17177;SDS011;8704;52.006;4.374;2023-06-01T10:38:23;8.60;;;4.70;;
17177;SDS011;8704;52.006;4.374;2023-06-01T10:40:51;9.20;;;4.90;;
17177;SDS011;8704;52.006;4.374;2023-06-01T10:48:52;10.20;;;4.40;;
17177;SDS011;8704;52.006;4.374;2023-06-01T10:51:21;10.43;;;4.72;;
17177;SDS011;8704;52.006;4.374;2023-06-01T10:53:50;9.65;;;4.85;;
17177;SDS011;8704;52.006;4.374;2023-06-01T10:56:19;9.68;;;4.90;;
17177;SDS011;8704;52.006;4.374;2023-06-01T11:01:44;8.13;;;4.63;;
17177;SDS011;8704;52.006;4.374;2023-06-01T11:04:15;8.90;;;4.35;;
17177;SDS011;8704;52.006;4.374;2023-06-01T11:06:43;7.43;;;4.07;;
17177;SDS011;8704;52.006;4.374;2023-06-01T11:09:12;14.32;;;7.70;;
17177;SDS011;8704;52.006;4.374;2023-06-01T11:11:58;12.48;;;5.07;;
17177;SDS011;8704;52.006;4.374;2023-06-01T11:14:28;8.82;;;4.20;;
17177;SDS011;8704;52.006;4.374;2023-06-01T11:19:48;9.85;;;4.00;;
17177;SDS011;8704;52.006;4.374;2023-06-01T11:22:17;7.88;;;4.40;;
17177;SDS011;8704;52.006;4.374;2023-06-01T11:24:46;12.07;;;4.20;;
17177;SDS011;8704;52.006;4.374;2023-06-01T11:27:15;10.50;;;4.40;;
17177;SDS011;8704;52.006;4.374;2023-06-01T11:29:46;7.82;;;4.13;;
17177;SDS011;8704;52.006;4.374;2023-06-01T11:32:16;8.90;;;4.18;;
17177;SDS011;8704;52.006;4.374;2023-06-01T11:34:51;9.93;;;4.45;;
17177;SDS011;8704;52.006;4.374;2023-06-01T11:37:20;9.18;;;3.85;;
17177;SDS011;8704;52.006;4.374;2023-06-01T11:39:48;7.28;;;3.70;;
17177;SDS011;8704;52.006;4.374;2023-06-01T11:42:17;8.10;;;3.97;;
17177;SDS011;8704;52.006;4.374;2023-06-01T11:44:45;8.25;;;3.53;;
17177;SDS011;8704;52.006;4.374;2023-06-01T11:47:14;7.68;;;3.60;;
17177;SDS011;8704;52.006;4.374;2023-06-01T11:49:43;6.07;;;3.30;;
17177;SDS011;8704;52.006;4.374;2023-06-01T11:52:15;8.05;;;3.75;;
17177;SDS011;8704;52.006;4.374;2023-06-01T11:54:44;6.50;;;3.28;;
17177;SDS011;8704;52.006;4.374;2023-06-01T11:57:13;7.95;;;3.10;;
17177;SDS011;8704;52.006;4.374;2023-06-01T11:59:42;7.65;;;3.38;;
17177;SDS011;8704;52.006;4.374;2023-06-01T12:02:18;8.82;;;3.03;;
17177;SDS011;8704;52.006;4.374;2023-06-01T12:04:54;6.30;;;2.83;;
17177;SDS011;8704;52.006;4.374;2023-06-01T12:07:25;7.47;;;3.28;;
17177;SDS011;8704;52.006;4.374;2023-06-01T12:09:54;6.72;;;2.97;;
17177;SDS011;8704;52.006;4.374;2023-06-01T12:12:23;8.20;;;3.35;;
17177;SDS011;8704;52.006;4.374;2023-06-01T12:14:51;5.38;;;2.72;;
17177;SDS011;8704;52.006;4.374;2023-06-01T12:17:20;5.60;;;2.55;;
17177;SDS011;8704;52.006;4.374;2023-06-01T12:19:49;6.57;;;2.95;;
17177;SDS011;8704;52.006;4.374;2023-06-01T12:22:17;8.20;;;2.50;;
17177;SDS011;8704;52.006;4.374;2023-06-01T12:24:47;4.78;;;2.28;;
17177;SDS011;8704;52.006;4.374;2023-06-01T12:27:16;9.70;;;2.63;;
17177;SDS011;8704;52.006;4.374;2023-06-01T12:29:46;8.25;;;2.90;;
17177;SDS011;8704;52.006;4.374;2023-06-01T12:32:16;8.27;;;2.70;;
17177;SDS011;8704;52.006;4.374;2023-06-01T12:37:29;6.60;;;2.33;;
17177;SDS011;8704;52.006;4.374;2023-06-01T12:39:58;5.70;;;2.10;;
17177;SDS011;8704;52.006;4.374;2023-06-01T12:42:34;5.82;;;2.03;;
17177;SDS011;8704;52.006;4.374;2023-06-01T12:45:04;4.32;;;2.10;;
17177;SDS011;8704;52.006;4.374;2023-06-01T12:47:36;6.18;;;2.42;;
17177;SDS011;8704;52.006;4.374;2023-06-01T12:50:05;5.63;;;2.35;;
17177;SDS011;8704;52.006;4.374;2023-06-01T12:52:35;5.15;;;2.00;;
17177;SDS011;8704;52.006;4.374;2023-06-01T12:55:05;4.95;;;2.08;;
17177;SDS011;8704;52.006;4.374;2023-06-01T12:57:35;6.30;;;1.63;;
17177;SDS011;8704;52.006;4.374;2023-06-01T13:00:04;4.65;;;1.75;;
17177;SDS011;8704;52.006;4.374;2023-06-01T13:02:33;4.05;;;1.52;;
17177;SDS011;8704;52.006;4.374;2023-06-01T13:05:02;2.78;;;1.52;;
17177;SDS011;8704;52.006;4.374;2023-06-01T13:07:32;6.80;;;1.50;;
17177;SDS011;8704;52.006;4.374;2023-06-01T13:10:00;5.03;;;1.50;;
17177;SDS011;8704;52.006;4.374;2023-06-01T13:12:30;5.03;;;1.85;;
17177;SDS011;8704;52.006;4.374;2023-06-01T13:14:58;4.28;;;1.92;;
17177;SDS011;8704;52.006;4.374;2023-06-01T13:17:27;2.95;;;1.35;;
17177;SDS011;8704;52.006;4.374;2023-06-01T13:19:55;4.43;;;1.60;;
17177;SDS011;8704;52.006;4.374;2023-06-01T13:22:24;6.82;;;2.05;;
17177;SDS011;8704;52.006;4.374;2023-06-01T13:24:52;6.57;;;1.60;;
17177;SDS011;8704;52.006;4.374;2023-06-01T13:27:32;4.57;;;1.80;;
17177;SDS011;8704;52.006;4.374;2023-06-01T13:30:00;2.15;;;1.27;;
17177;SDS011;8704;52.006;4.374;2023-06-01T13:32:30;2.47;;;1.23;;
17177;SDS011;8704;52.006;4.374;2023-06-01T13:34:59;2.80;;;1.13;;
17177;SDS011;8704;52.006;4.374;2023-06-01T13:37:27;2.53;;;1.35;;
17177;SDS011;8704;52.006;4.374;2023-06-01T13:39:55;4.90;;;1.25;;
17177;SDS011;8704;52.006;4.374;2023-06-01T13:42:24;2.33;;;1.08;;
17177;SDS011;8704;52.006;4.374;2023-06-01T13:44:54;3.60;;;1.85;;
17177;SDS011;8704;52.006;4.374;2023-06-01T13:47:22;4.28;;;1.70;;
17177;SDS011;8704;52.006;4.374;2023-06-01T13:49:50;4.20;;;1.85;;
17177;SDS011;8704;52.006;4.374;2023-06-01T13:52:18;2.90;;;2.03;;
17177;SDS011;8704;52.006;4.374;2023-06-01T13:54:47;4.38;;;2.10;;
17177;SDS011;8704;52.006;4.374;2023-06-01T13:57:15;3.92;;;1.67;;
17177;SDS011;8704;52.006;4.374;2023-06-01T13:59:43;4.00;;;1.63;;
17177;SDS011;8704;52.006;4.374;2023-06-01T14:02:13;4.72;;;1.70;;
17177;SDS011;8704;52.006;4.374;2023-06-01T14:04:42;3.00;;;1.30;;
17177;SDS011;8704;52.006;4.374;2023-06-01T14:07:16;4.15;;;1.55;;
17177;SDS011;8704;52.006;4.374;2023-06-01T14:09:44;2.67;;;1.30;;
17177;SDS011;8704;52.006;4.374;2023-06-01T14:12:13;2.70;;;1.67;;
17177;SDS011;8704;52.006;4.374;2023-06-01T14:14:41;5.32;;;1.98;;
17177;SDS011;8704;52.006;4.374;2023-06-01T14:17:09;5.32;;;1.60;;
17177;SDS011;8704;52.006;4.374;2023-06-01T14:19:39;6.18;;;1.75;;
17177;SDS011;8704;52.006;4.374;2023-06-01T14:22:07;7.72;;;1.70;;
17177;SDS011;8704;52.006;4.374;2023-06-01T14:24:36;5.28;;;2.42;;
17177;SDS011;8704;52.006;4.374;2023-06-01T14:27:04;4.15;;;1.73;;
17177;SDS011;8704;52.006;4.374;2023-06-01T14:29:33;6.20;;;2.20;;
17177;SDS011;8704;52.006;4.374;2023-06-01T14:32:02;6.85;;;2.03;;
17177;SDS011;8704;52.006;4.374;2023-06-01T14:34:30;7.78;;;2.00;;
17177;SDS011;8704;52.006;4.374;2023-06-01T14:36:59;6.30;;;1.88;;
17177;SDS011;8704;52.006;4.374;2023-06-01T14:41:58;6.30;;;2.53;;
17177;SDS011;8704;52.006;4.374;2023-06-01T14:44:27;5.65;;;2.30;;
17177;SDS011;8704;52.006;4.374;2023-06-01T14:46:55;5.18;;;1.85;;
17177;SDS011;8704;52.006;4.374;2023-06-01T14:49:25;5.43;;;2.00;;
17177;SDS011;8704;52.006;4.374;2023-06-01T14:52:09;5.55;;;1.92;;
17177;SDS011;8704;52.006;4.374;2023-06-01T14:54:37;5.93;;;2.10;;
17177;SDS011;8704;52.006;4.374;2023-06-01T14:57:06;3.72;;;1.90;;
17177;SDS011;8704;52.006;4.374;2023-06-01T14:59:34;6.53;;;2.13;;
17177;SDS011;8704;52.006;4.374;2023-06-01T15:02:11;5.95;;;2.03;;
17177;SDS011;8704;52.006;4.374;2023-06-01T15:04:39;6.13;;;1.90;;
17177;SDS011;8704;52.006;4.374;2023-06-01T15:07:07;5.85;;;2.22;;
17177;SDS011;8704;52.006;4.374;2023-06-01T15:09:37;4.07;;;1.92;;
17177;SDS011;8704;52.006;4.374;2023-06-01T15:12:05;5.13;;;1.75;;
17177;SDS011;8704;52.006;4.374;2023-06-01T15:14:34;3.85;;;1.63;;
17177;SDS011;8704;52.006;4.374;2023-06-01T15:17:02;7.07;;;2.20;;
17177;SDS011;8704;52.006;4.374;2023-06-01T15:19:31;6.53;;;2.00;;
17177;SDS011;8704;52.006;4.374;2023-06-01T15:21:59;4.68;;;1.90;;
17177;SDS011;8704;52.006;4.374;2023-06-01T15:24:27;6.68;;;2.00;;
17177;SDS011;8704;52.006;4.374;2023-06-01T15:26:57;4.80;;;2.15;;
17177;SDS011;8704;52.006;4.374;2023-06-01T15:29:26;5.82;;;2.60;;